JAL572 RJCB-RJTT
Flight info
| Callsign | JAL572 |
|---|---|
| Flight time | 1h 27m |
| Altitude | 30000 |
| Route | RACKO Y110 EPDOM Y112 OMGOL Y111 MQE Y106 RUBIS Y10 GODIN |
| Aircraft | B738/M-SDE2E3FGHIRWXY/LB1 |
Departure
| Time | 2026-05-05 05:17 |
|---|---|
| Airport | Tokachi-Obihiro Airport (RJCB) |
Arrival
| Time | 2026-05-05 06:44 |
|---|---|
| Airport | Tokyo Haneda International Airport (RJTT) |
| Time | Latitude | Longitude | Altitude | Speed | Heading |
|---|---|---|---|---|---|
| 2026-05-05 04:59 | 42.73287 | 143.21323 | 500 ft | 0 kts | 249° |
| 2026-05-05 05:08 | 42.73287 | 143.21324 | 500 ft | 2 kts | 249° |
| 2026-05-05 05:08 | 42.73293 | 143.21344 | 500 ft | 2 kts | 249° |
| 2026-05-05 05:08 | 42.73299 | 143.21365 | 500 ft | 2 kts | 248° |
| 2026-05-05 05:09 | 42.73305 | 143.21386 | 500 ft | 2 kts | 247° |
| 2026-05-05 05:09 | 42.73312 | 143.21406 | 500 ft | 2 kts | 246° |
| 2026-05-05 05:09 | 42.73318 | 143.21427 | 500 ft | 2 kts | 244° |
| 2026-05-05 05:09 | 42.73326 | 143.21447 | 500 ft | 2 kts | 242° |
| 2026-05-05 05:10 | 42.73334 | 143.21466 | 500 ft | 2 kts | 237° |
| 2026-05-05 05:10 | 42.73343 | 143.21484 | 500 ft | 2 kts | 227° |
| 2026-05-05 05:10 | 42.73356 | 143.21497 | 500 ft | 2 kts | 189° |
| 2026-05-05 05:10 | 42.73366 | 143.21497 | 500 ft | 0 kts | 159° |
| 2026-05-05 05:11 | 42.73360 | 143.21500 | 500 ft | 2 kts | 159° |
| 2026-05-05 05:11 | 42.73345 | 143.21508 | 500 ft | 3 kts | 159° |
| 2026-05-05 05:12 | 42.73321 | 143.21521 | 501 ft | 4 kts | 157° |
| 2026-05-05 05:12 | 42.73289 | 143.21540 | 501 ft | 6 kts | 157° |
| 2026-05-05 05:12 | 42.73249 | 143.21562 | 502 ft | 7 kts | 157° |
| 2026-05-05 05:12 | 42.73203 | 143.21585 | 503 ft | 7 kts | 169° |
| 2026-05-05 05:13 | 42.73152 | 143.21608 | 504 ft | 8 kts | 158° |
| 2026-05-05 05:13 | 42.73096 | 143.21639 | 504 ft | 9 kts | 158° |
| 2026-05-05 05:13 | 42.73033 | 143.21671 | 505 ft | 10 kts | 161° |
| 2026-05-05 05:13 | 42.72967 | 143.21702 | 506 ft | 10 kts | 159° |
| 2026-05-05 05:14 | 42.72899 | 143.21738 | 508 ft | 10 kts | 159° |
| 2026-05-05 05:14 | 42.72829 | 143.21774 | 509 ft | 11 kts | 159° |
| 2026-05-05 05:14 | 42.72759 | 143.21810 | 510 ft | 11 kts | 160° |
| 2026-05-05 05:14 | 42.72686 | 143.21847 | 511 ft | 11 kts | 159° |
| 2026-05-05 05:15 | 42.72613 | 143.21884 | 513 ft | 11 kts | 160° |
| 2026-05-05 05:15 | 42.72538 | 143.21923 | 514 ft | 12 kts | 159° |
| 2026-05-05 05:15 | 42.72461 | 143.21962 | 515 ft | 12 kts | 160° |
| 2026-05-05 05:15 | 42.72383 | 143.22002 | 516 ft | 12 kts | 159° |
| 2026-05-05 05:16 | 42.72306 | 143.22047 | 518 ft | 12 kts | 147° |
| 2026-05-05 05:16 | 42.72281 | 143.22149 | 518 ft | 13 kts | 72° |
| 2026-05-05 05:16 | 42.72328 | 143.22249 | 520 ft | 13 kts | 19° |
| 2026-05-05 05:16 | 42.72482 | 143.22183 | 519 ft | 56 kts | 339° |
| 2026-05-05 05:17 | 42.73129 | 143.21844 | 505 ft | 141 kts | 339° |
| 2026-05-05 05:17 | 42.74223 | 143.21310 | 870 ft | 176 kts | 336° |
| 2026-05-05 05:17 | 42.75374 | 143.20872 | 2003 ft | 178 kts | 356° |
| 2026-05-05 05:17 | 42.76660 | 143.21460 | 2384 ft | 209 kts | 41° |
| 2026-05-05 05:18 | 42.77575 | 143.23081 | 2752 ft | 229 kts | 69° |
| 2026-05-05 05:18 | 42.77853 | 143.25275 | 2970 ft | 245 kts | 98° |
| 2026-05-05 05:18 | 42.77184 | 143.27396 | 3217 ft | 250 kts | 136° |
| 2026-05-05 05:18 | 42.75742 | 143.28637 | 3523 ft | 247 kts | 166° |
| 2026-05-05 05:19 | 42.74097 | 143.29152 | 3888 ft | 245 kts | 175° |
| 2026-05-05 05:19 | 42.72517 | 143.30099 | 4137 ft | 259 kts | 147° |
| 2026-05-05 05:19 | 42.70936 | 143.31172 | 4438 ft | 250 kts | 174° |
| 2026-05-05 05:19 | 42.69223 | 143.31511 | 4794 ft | 251 kts | 178° |
| 2026-05-05 05:20 | 42.67477 | 143.31897 | 5414 ft | 255 kts | 177° |
| 2026-05-05 05:20 | 42.65667 | 143.32354 | 5781 ft | 276 kts | 176° |
| 2026-05-05 05:20 | 42.63750 | 143.32890 | 6447 ft | 285 kts | 174° |
| 2026-05-05 05:20 | 42.61811 | 143.33495 | 7251 ft | 289 kts | 173° |
| 2026-05-05 05:21 | 42.59829 | 143.34145 | 7998 ft | 296 kts | 172° |
| 2026-05-05 05:21 | 42.57812 | 143.34827 | 8790 ft | 301 kts | 172° |
| 2026-05-05 05:21 | 42.55780 | 143.35528 | 9529 ft | 309 kts | 171° |
| 2026-05-05 05:21 | 42.53683 | 143.36260 | 10281 ft | 314 kts | 170° |
| 2026-05-05 05:22 | 42.51496 | 143.37024 | 10590 ft | 337 kts | 170° |
| 2026-05-05 05:23 | 42.51077 | 143.37170 | 10622 ft | 341 kts | 170° |
| 2026-05-05 05:24 | 42.47913 | 143.38279 | 10942 ft | 369 kts | 170° |
| 2026-05-05 05:24 | 42.46214 | 143.38880 | 11300 ft | 377 kts | 170° |
| 2026-05-05 05:24 | 42.43652 | 143.39791 | 11974 ft | 383 kts | 170° |
| 2026-05-05 05:24 | 42.41062 | 143.40713 | 12706 ft | 387 kts | 170° |
| 2026-05-05 05:25 | 42.38473 | 143.41633 | 13405 ft | 392 kts | 170° |
| 2026-05-05 05:25 | 42.35812 | 143.42574 | 14018 ft | 398 kts | 169° |
| 2026-05-05 05:25 | 42.33098 | 143.43533 | 14499 ft | 407 kts | 169° |
| 2026-05-05 05:25 | 42.30335 | 143.44508 | 15079 ft | 413 kts | 169° |
| 2026-05-05 05:26 | 42.27549 | 143.45493 | 15754 ft | 415 kts | 169° |
| 2026-05-05 05:26 | 42.24743 | 143.46484 | 16429 ft | 418 kts | 169° |
| 2026-05-05 05:26 | 42.21915 | 143.47479 | 17067 ft | 421 kts | 169° |
| 2026-05-05 05:26 | 42.19068 | 143.48486 | 17692 ft | 425 kts | 168° |
| 2026-05-05 05:27 | 42.16218 | 143.49701 | 18309 ft | 431 kts | 165° |
| 2026-05-05 05:27 | 42.13380 | 143.51081 | 18825 ft | 436 kts | 163° |
| 2026-05-05 05:27 | 42.07626 | 143.53954 | 19826 ft | 444 kts | 164° |
| 2026-05-05 05:28 | 42.04705 | 143.55378 | 20326 ft | 448 kts | 164° |
| 2026-05-05 05:28 | 42.01791 | 143.56776 | 20812 ft | 452 kts | 165° |
| 2026-05-05 05:28 | 41.98806 | 143.58197 | 21281 ft | 457 kts | 165° |
| 2026-05-05 05:28 | 41.95793 | 143.59629 | 21698 ft | 462 kts | 165° |
| 2026-05-05 05:29 | 41.92744 | 143.61077 | 22162 ft | 466 kts | 165° |
| 2026-05-05 05:29 | 41.89672 | 143.62540 | 22648 ft | 469 kts | 165° |
| 2026-05-05 05:29 | 41.86581 | 143.64010 | 23103 ft | 473 kts | 165° |
| 2026-05-05 05:29 | 41.83466 | 143.65491 | 23535 ft | 477 kts | 164° |
| 2026-05-05 05:30 | 41.80366 | 143.66964 | 23897 ft | 480 kts | 164° |
| 2026-05-05 05:30 | 41.77200 | 143.68467 | 24290 ft | 483 kts | 164° |
| 2026-05-05 05:30 | 41.74010 | 143.69980 | 24684 ft | 485 kts | 164° |
| 2026-05-05 05:30 | 41.70810 | 143.71494 | 25067 ft | 488 kts | 164° |
| 2026-05-05 05:31 | 41.67645 | 143.72991 | 25418 ft | 490 kts | 164° |
| 2026-05-05 05:31 | 41.64420 | 143.74521 | 25776 ft | 493 kts | 163° |
| 2026-05-05 05:31 | 41.61185 | 143.76058 | 26162 ft | 494 kts | 163° |
| 2026-05-05 05:31 | 41.57928 | 143.77605 | 26521 ft | 497 kts | 163° |
| 2026-05-05 05:32 | 41.54664 | 143.79153 | 26852 ft | 499 kts | 164° |
| 2026-05-05 05:32 | 41.51369 | 143.80714 | 27189 ft | 501 kts | 164° |
| 2026-05-05 05:32 | 41.48075 | 143.82273 | 27536 ft | 503 kts | 164° |
| 2026-05-05 05:32 | 41.44771 | 143.83834 | 27849 ft | 506 kts | 163° |
| 2026-05-05 05:33 | 41.41480 | 143.85336 | 28211 ft | 505 kts | 168° |
| 2026-05-05 05:33 | 41.38049 | 143.86173 | 28659 ft | 496 kts | 181° |
| 2026-05-05 05:33 | 41.34634 | 143.86157 | 29181 ft | 486 kts | 191° |
| 2026-05-05 05:33 | 41.31341 | 143.85423 | 29677 ft | 474 kts | 202° |
| 2026-05-05 05:34 | 41.28195 | 143.84139 | 30075 ft | 472 kts | 204° |
| 2026-05-05 05:34 | 41.25046 | 143.82809 | 30036 ft | 476 kts | 204° |
| 2026-05-05 05:34 | 41.18786 | 143.80216 | 30052 ft | 465 kts | 204° |
| 2026-05-05 05:35 | 41.12623 | 143.77731 | 30078 ft | 466 kts | 204° |
| 2026-05-05 05:35 | 41.06390 | 143.75244 | 30079 ft | 469 kts | 203° |
| 2026-05-05 05:36 | 41.00127 | 143.72756 | 30062 ft | 470 kts | 204° |
| 2026-05-05 05:36 | 40.93847 | 143.70264 | 30084 ft | 471 kts | 204° |
| 2026-05-05 05:37 | 40.87606 | 143.67790 | 30079 ft | 471 kts | 204° |
| 2026-05-05 05:37 | 40.81321 | 143.65300 | 30084 ft | 470 kts | 205° |
| 2026-05-05 05:38 | 40.78362 | 143.63624 | 30053 ft | 456 kts | 218° |
| 2026-05-05 05:38 | 40.75839 | 143.61226 | 30087 ft | 440 kts | 229° |
| 2026-05-05 05:38 | 40.73746 | 143.58365 | 30080 ft | 427 kts | 240° |
| 2026-05-05 05:38 | 40.72072 | 143.55166 | 30100 ft | 423 kts | 243° |
| 2026-05-05 05:39 | 40.68787 | 143.48749 | 30085 ft | 425 kts | 243° |
| 2026-05-05 05:39 | 40.65428 | 143.42316 | 30065 ft | 426 kts | 242° |
| 2026-05-05 05:40 | 40.62048 | 143.35907 | 30083 ft | 426 kts | 242° |
| 2026-05-05 05:40 | 40.58679 | 143.29532 | 30090 ft | 426 kts | 242° |
| 2026-05-05 05:41 | 40.55301 | 143.23123 | 30091 ft | 426 kts | 242° |
| 2026-05-05 05:41 | 40.51931 | 143.16721 | 30087 ft | 425 kts | 242° |
| 2026-05-05 05:42 | 40.48570 | 143.10345 | 30092 ft | 424 kts | 242° |
| 2026-05-05 05:42 | 40.45210 | 143.03986 | 30095 ft | 423 kts | 242° |
| 2026-05-05 05:43 | 40.41875 | 142.97687 | 30072 ft | 422 kts | 242° |
| 2026-05-05 05:43 | 40.38523 | 142.91371 | 30086 ft | 421 kts | 242° |
| 2026-05-05 05:44 | 40.35172 | 142.85068 | 30097 ft | 421 kts | 242° |
| 2026-05-05 05:44 | 40.31818 | 142.78772 | 30095 ft | 421 kts | 242° |
| 2026-05-05 05:45 | 40.28466 | 142.72493 | 30103 ft | 420 kts | 241° |
| 2026-05-05 05:45 | 40.25113 | 142.66225 | 30095 ft | 420 kts | 241° |
| 2026-05-05 05:46 | 40.21753 | 142.59957 | 30096 ft | 420 kts | 241° |
| 2026-05-05 05:46 | 40.18386 | 142.53687 | 30064 ft | 421 kts | 241° |
| 2026-05-05 05:47 | 40.15042 | 142.47473 | 30090 ft | 420 kts | 241° |
| 2026-05-05 05:47 | 40.11676 | 142.41232 | 30090 ft | 419 kts | 241° |
| 2026-05-05 05:48 | 40.08307 | 142.34996 | 30088 ft | 419 kts | 241° |
| 2026-05-05 05:48 | 40.04946 | 142.28786 | 30090 ft | 418 kts | 241° |
| 2026-05-05 05:49 | 40.01607 | 142.22629 | 30093 ft | 418 kts | 240° |
| 2026-05-05 05:49 | 39.98243 | 142.16439 | 30093 ft | 417 kts | 240° |
| 2026-05-05 05:50 | 39.94884 | 142.10269 | 30065 ft | 417 kts | 240° |
| 2026-05-05 05:50 | 39.91527 | 142.04112 | 30084 ft | 416 kts | 240° |
| 2026-05-05 05:51 | 39.88066 | 141.98046 | 30077 ft | 422 kts | 233° |
| 2026-05-05 05:51 | 39.83450 | 141.93163 | 30089 ft | 435 kts | 217° |
| 2026-05-05 05:52 | 39.77953 | 141.89673 | 30077 ft | 440 kts | 212° |
| 2026-05-05 05:52 | 39.72410 | 141.86375 | 30081 ft | 439 kts | 212° |
| 2026-05-05 05:53 | 39.66863 | 141.83047 | 30097 ft | 437 kts | 212° |
| 2026-05-05 05:53 | 39.61351 | 141.79709 | 30082 ft | 436 kts | 212° |
| 2026-05-05 05:54 | 39.55874 | 141.76384 | 30111 ft | 434 kts | 212° |
| 2026-05-05 05:54 | 39.50439 | 141.73114 | 30089 ft | 432 kts | 212° |
| 2026-05-05 05:55 | 39.45013 | 141.69793 | 30139 ft | 431 kts | 213° |
| 2026-05-05 05:55 | 39.39571 | 141.66499 | 30113 ft | 431 kts | 212° |
| 2026-05-05 05:56 | 39.34122 | 141.63217 | 30120 ft | 432 kts | 212° |
| 2026-05-05 05:56 | 39.28663 | 141.59938 | 30107 ft | 432 kts | 212° |
| 2026-05-05 05:57 | 39.23220 | 141.56665 | 30123 ft | 431 kts | 212° |
| 2026-05-05 05:57 | 39.17810 | 141.53412 | 30151 ft | 431 kts | 213° |
| 2026-05-05 05:58 | 39.14164 | 141.51229 | 30124 ft | 432 kts | 213° |
| 2026-05-05 05:59 | 39.10616 | 141.49109 | 30128 ft | 430 kts | 212° |
| 2026-05-05 05:59 | 39.05175 | 141.45855 | 30135 ft | 432 kts | 212° |
| 2026-05-05 06:00 | 38.99740 | 141.42602 | 30150 ft | 434 kts | 212° |
| 2026-05-05 06:00 | 38.94232 | 141.39327 | 30137 ft | 437 kts | 212° |
| 2026-05-05 06:01 | 38.88700 | 141.36038 | 30133 ft | 437 kts | 211° |
| 2026-05-05 06:01 | 38.83180 | 141.32763 | 30141 ft | 437 kts | 211° |
| 2026-05-05 06:02 | 38.77699 | 141.29515 | 30152 ft | 435 kts | 211° |
| 2026-05-05 06:02 | 38.72191 | 141.26257 | 30118 ft | 434 kts | 211° |
| 2026-05-05 06:03 | 38.66716 | 141.23024 | 30140 ft | 433 kts | 211° |
| 2026-05-05 06:03 | 38.61273 | 141.19814 | 30153 ft | 432 kts | 211° |
| 2026-05-05 06:04 | 38.55809 | 141.16597 | 30137 ft | 432 kts | 211° |
| 2026-05-05 06:04 | 38.50339 | 141.13381 | 30156 ft | 433 kts | 211° |
| 2026-05-05 06:05 | 38.44851 | 141.10161 | 30143 ft | 434 kts | 211° |
| 2026-05-05 06:05 | 38.39401 | 141.06969 | 30158 ft | 434 kts | 211° |
| 2026-05-05 06:06 | 38.33911 | 141.03759 | 30152 ft | 434 kts | 211° |
| 2026-05-05 06:06 | 38.28415 | 141.00551 | 30162 ft | 434 kts | 211° |
| 2026-05-05 06:07 | 38.22917 | 140.97346 | 30161 ft | 433 kts | 211° |
| 2026-05-05 06:07 | 38.17479 | 140.94182 | 30129 ft | 431 kts | 211° |
| 2026-05-05 06:08 | 38.12104 | 140.90871 | 30131 ft | 425 kts | 216° |
| 2026-05-05 06:08 | 38.06993 | 140.87099 | 30127 ft | 423 kts | 217° |
| 2026-05-05 06:09 | 38.01921 | 140.83324 | 30130 ft | 422 kts | 217° |
| 2026-05-05 06:09 | 37.96869 | 140.79604 | 30142 ft | 422 kts | 217° |
| 2026-05-05 06:10 | 37.91779 | 140.75879 | 30158 ft | 422 kts | 217° |
| 2026-05-05 06:10 | 37.86687 | 140.72162 | 30157 ft | 422 kts | 217° |
| 2026-05-05 06:11 | 37.81593 | 140.68445 | 30166 ft | 423 kts | 217° |
| 2026-05-05 06:11 | 37.77351 | 140.65357 | 30164 ft | 424 kts | 217° |
| 2026-05-05 06:12 | 37.71799 | 140.62503 | 30141 ft | 440 kts | 201° |
| 2026-05-05 06:12 | 37.65910 | 140.60872 | 30153 ft | 430 kts | 200° |
| 2026-05-05 06:13 | 37.60037 | 140.59247 | 30162 ft | 433 kts | 200° |
| 2026-05-05 06:13 | 37.54182 | 140.57590 | 30142 ft | 424 kts | 201° |
| 2026-05-05 06:14 | 37.51349 | 140.56787 | 30137 ft | 410 kts | 201° |
| 2026-05-05 06:14 | 37.48617 | 140.56014 | 30121 ft | 394 kts | 201° |
| 2026-05-05 06:14 | 37.46025 | 140.55279 | 30146 ft | 379 kts | 202° |
| 2026-05-05 06:14 | 37.43505 | 140.54561 | 30142 ft | 365 kts | 202° |
| 2026-05-05 06:15 | 37.41071 | 140.53865 | 30143 ft | 352 kts | 202° |
| 2026-05-05 06:15 | 37.38723 | 140.53193 | 30146 ft | 339 kts | 203° |
| 2026-05-05 06:15 | 37.36466 | 140.52547 | 30147 ft | 327 kts | 203° |
| 2026-05-05 06:15 | 37.34286 | 140.51922 | 30108 ft | 316 kts | 204° |
| 2026-05-05 06:16 | 37.32133 | 140.51297 | 29450 ft | 322 kts | 203° |
| 2026-05-05 06:16 | 37.29873 | 140.50633 | 28126 ft | 347 kts | 202° |
| 2026-05-05 06:16 | 37.27425 | 140.49920 | 26656 ft | 375 kts | 201° |
| 2026-05-05 06:16 | 37.24798 | 140.49170 | 25316 ft | 399 kts | 200° |
| 2026-05-05 06:17 | 37.22047 | 140.48388 | 24446 ft | 409 kts | 199° |
| 2026-05-05 06:17 | 37.19272 | 140.47602 | 23927 ft | 408 kts | 199° |
| 2026-05-05 06:17 | 37.16523 | 140.46824 | 23524 ft | 402 kts | 199° |
| 2026-05-05 06:17 | 37.13841 | 140.46068 | 23078 ft | 398 kts | 199° |
| 2026-05-05 06:18 | 37.11149 | 140.45310 | 22567 ft | 395 kts | 199° |
| 2026-05-05 06:18 | 37.08471 | 140.44553 | 22038 ft | 393 kts | 199° |
| 2026-05-05 06:18 | 37.05834 | 140.43809 | 21444 ft | 385 kts | 198° |
| 2026-05-05 06:18 | 37.03214 | 140.43069 | 20689 ft | 383 kts | 198° |
| 2026-05-05 06:19 | 37.00666 | 140.42349 | 20160 ft | 375 kts | 198° |
| 2026-05-05 06:19 | 36.98147 | 140.41640 | 19674 ft | 366 kts | 198° |
| 2026-05-05 06:19 | 36.95694 | 140.40950 | 19262 ft | 357 kts | 198° |
| 2026-05-05 06:19 | 36.93272 | 140.40267 | 18861 ft | 356 kts | 198° |
| 2026-05-05 06:20 | 36.90847 | 140.39582 | 18404 ft | 359 kts | 198° |
| 2026-05-05 06:20 | 36.88394 | 140.38895 | 17932 ft | 363 kts | 198° |
| 2026-05-05 06:20 | 36.85906 | 140.38200 | 17476 ft | 369 kts | 198° |
| 2026-05-05 06:20 | 36.83398 | 140.37502 | 17021 ft | 368 kts | 197° |
| 2026-05-05 06:21 | 36.80903 | 140.36810 | 16583 ft | 366 kts | 197° |
| 2026-05-05 06:21 | 36.78457 | 140.36131 | 16170 ft | 363 kts | 197° |
| 2026-05-05 06:21 | 36.75993 | 140.35446 | 15746 ft | 361 kts | 197° |
| 2026-05-05 06:21 | 36.73539 | 140.34787 | 15308 ft | 361 kts | 195° |
| 2026-05-05 06:22 | 36.71066 | 140.34266 | 14851 ft | 361 kts | 193° |
| 2026-05-05 06:22 | 36.68584 | 140.33789 | 14436 ft | 359 kts | 193° |
| 2026-05-05 06:22 | 36.66105 | 140.33305 | 14016 ft | 357 kts | 193° |
| 2026-05-05 06:22 | 36.63659 | 140.32818 | 13537 ft | 356 kts | 193° |
| 2026-05-05 06:23 | 36.61214 | 140.32323 | 13090 ft | 354 kts | 193° |
| 2026-05-05 06:23 | 36.58782 | 140.31832 | 12541 ft | 356 kts | 193° |
| 2026-05-05 06:23 | 36.56367 | 140.31346 | 12084 ft | 354 kts | 192° |
| 2026-05-05 06:23 | 36.53936 | 140.30857 | 11658 ft | 352 kts | 192° |
| 2026-05-05 06:24 | 36.51528 | 140.30373 | 11246 ft | 349 kts | 192° |
| 2026-05-05 06:24 | 36.49140 | 140.29894 | 10841 ft | 346 kts | 192° |
| 2026-05-05 06:24 | 36.46778 | 140.29421 | 10631 ft | 337 kts | 192° |
| 2026-05-05 06:24 | 36.44493 | 140.28963 | 10470 ft | 327 kts | 193° |
| 2026-05-05 06:25 | 36.42426 | 140.28079 | 10312 ft | 312 kts | 216° |
| 2026-05-05 06:25 | 36.40883 | 140.26310 | 10202 ft | 296 kts | 236° |
| 2026-05-05 06:25 | 36.39908 | 140.24140 | 10081 ft | 282 kts | 253° |
| 2026-05-05 06:25 | 36.39384 | 140.21829 | 9882 ft | 275 kts | 258° |
| 2026-05-05 06:26 | 36.38946 | 140.19526 | 9590 ft | 272 kts | 259° |
| 2026-05-05 06:26 | 36.38520 | 140.17249 | 9317 ft | 269 kts | 259° |
| 2026-05-05 06:26 | 36.38095 | 140.14999 | 9045 ft | 267 kts | 258° |
| 2026-05-05 06:26 | 36.37668 | 140.12762 | 8756 ft | 266 kts | 258° |
| 2026-05-05 06:27 | 36.37237 | 140.10540 | 8519 ft | 262 kts | 258° |
| 2026-05-05 06:27 | 36.36408 | 140.06301 | 8297 ft | 247 kts | 257° |
| 2026-05-05 06:27 | 36.36006 | 140.04263 | 8185 ft | 240 kts | 257° |
| 2026-05-05 06:28 | 36.35615 | 140.02286 | 8086 ft | 232 kts | 257° |
| 2026-05-05 06:28 | 36.35077 | 140.00450 | 7955 ft | 226 kts | 235° |
| 2026-05-05 06:28 | 36.33944 | 139.99134 | 7895 ft | 223 kts | 218° |
| 2026-05-05 06:28 | 36.32631 | 139.98076 | 7780 ft | 226 kts | 214° |
| 2026-05-05 06:29 | 36.31281 | 139.97066 | 7665 ft | 228 kts | 214° |
| 2026-05-05 06:29 | 36.29908 | 139.96047 | 7543 ft | 231 kts | 214° |
| 2026-05-05 06:29 | 36.28521 | 139.95015 | 7435 ft | 233 kts | 214° |
| 2026-05-05 06:29 | 36.27123 | 139.93971 | 7314 ft | 235 kts | 214° |
| 2026-05-05 06:30 | 36.25749 | 139.92942 | 7175 ft | 232 kts | 214° |
| 2026-05-05 06:30 | 36.24362 | 139.91902 | 7056 ft | 228 kts | 214° |
| 2026-05-05 06:30 | 36.23020 | 139.90893 | 6937 ft | 224 kts | 214° |
| 2026-05-05 06:30 | 36.21704 | 139.89901 | 6828 ft | 224 kts | 214° |
| 2026-05-05 06:31 | 36.20370 | 139.88895 | 6718 ft | 224 kts | 214° |
| 2026-05-05 06:31 | 36.19032 | 139.87885 | 6600 ft | 224 kts | 214° |
| 2026-05-05 06:31 | 36.17700 | 139.86879 | 6477 ft | 224 kts | 213° |
| 2026-05-05 06:31 | 36.16366 | 139.85871 | 6355 ft | 224 kts | 213° |
| 2026-05-05 06:32 | 36.15033 | 139.84866 | 6237 ft | 224 kts | 213° |
| 2026-05-05 06:32 | 36.13701 | 139.83860 | 6116 ft | 224 kts | 214° |
| 2026-05-05 06:32 | 36.12389 | 139.82870 | 6001 ft | 223 kts | 213° |
| 2026-05-05 06:32 | 36.11063 | 139.81869 | 5878 ft | 223 kts | 212° |
| 2026-05-05 06:33 | 36.09736 | 139.80868 | 5766 ft | 222 kts | 213° |
| 2026-05-05 06:33 | 36.08418 | 139.79874 | 5661 ft | 221 kts | 213° |
| 2026-05-05 06:33 | 36.07105 | 139.78885 | 5531 ft | 220 kts | 212° |
| 2026-05-05 06:33 | 36.05816 | 139.77914 | 5421 ft | 218 kts | 212° |
| 2026-05-05 06:34 | 36.04526 | 139.76942 | 5306 ft | 216 kts | 211° |
| 2026-05-05 06:34 | 36.03250 | 139.75978 | 5180 ft | 214 kts | 210° |
| 2026-05-05 06:34 | 36.01986 | 139.75028 | 5074 ft | 212 kts | 210° |
| 2026-05-05 06:34 | 36.00723 | 139.74081 | 4989 ft | 213 kts | 208° |
| 2026-05-05 06:35 | 35.99449 | 139.73120 | 4868 ft | 216 kts | 210° |
| 2026-05-05 06:35 | 35.98161 | 139.72152 | 4755 ft | 216 kts | 209° |
| 2026-05-05 06:35 | 35.96899 | 139.71204 | 4636 ft | 215 kts | 210° |
| 2026-05-05 06:35 | 35.95628 | 139.70249 | 4524 ft | 213 kts | 210° |
| 2026-05-05 06:36 | 35.94364 | 139.69301 | 4417 ft | 212 kts | 209° |
| 2026-05-05 06:36 | 35.93104 | 139.68356 | 4318 ft | 211 kts | 209° |
| 2026-05-05 06:36 | 35.91850 | 139.67413 | 4211 ft | 211 kts | 209° |
| 2026-05-05 06:36 | 35.90595 | 139.66472 | 4093 ft | 211 kts | 209° |
| 2026-05-05 06:37 | 35.89347 | 139.65536 | 3984 ft | 209 kts | 209° |
| 2026-05-05 06:37 | 35.88106 | 139.64610 | 3872 ft | 208 kts | 208° |
| 2026-05-05 06:37 | 35.86875 | 139.63687 | 3770 ft | 206 kts | 208° |
| 2026-05-05 06:37 | 35.85666 | 139.62783 | 3626 ft | 206 kts | 208° |
| 2026-05-05 06:38 | 35.84428 | 139.61876 | 3532 ft | 208 kts | 204° |
| 2026-05-05 06:38 | 35.83027 | 139.61553 | 3411 ft | 206 kts | 177° |
| 2026-05-05 06:38 | 35.81593 | 139.61600 | 3321 ft | 207 kts | 179° |
| 2026-05-05 06:38 | 35.80137 | 139.61614 | 3195 ft | 208 kts | 179° |
| 2026-05-05 06:39 | 35.78693 | 139.61623 | 3069 ft | 208 kts | 180° |
| 2026-05-05 06:39 | 35.77277 | 139.61776 | 2997 ft | 205 kts | 160° |
| 2026-05-05 06:39 | 35.76046 | 139.62629 | 3017 ft | 202 kts | 152° |
| 2026-05-05 06:39 | 35.74850 | 139.63480 | 2988 ft | 201 kts | 153° |
| 2026-05-05 06:40 | 35.73633 | 139.64336 | 2997 ft | 204 kts | 152° |
| 2026-05-05 06:40 | 35.72385 | 139.65220 | 3018 ft | 208 kts | 152° |
| 2026-05-05 06:40 | 35.71134 | 139.66114 | 3000 ft | 206 kts | 152° |
| 2026-05-05 06:40 | 35.69942 | 139.66965 | 3002 ft | 191 kts | 152° |
| 2026-05-05 06:41 | 35.68832 | 139.67757 | 2918 ft | 178 kts | 153° |
| 2026-05-05 06:41 | 35.67790 | 139.68498 | 2726 ft | 169 kts | 153° |
| 2026-05-05 06:41 | 35.66788 | 139.69212 | 2500 ft | 164 kts | 153° |
| 2026-05-05 06:41 | 35.65817 | 139.69906 | 2287 ft | 160 kts | 153° |
| 2026-05-05 06:42 | 35.64875 | 139.70576 | 2094 ft | 155 kts | 154° |
| 2026-05-05 06:42 | 35.63946 | 139.71238 | 1898 ft | 157 kts | 153° |
| 2026-05-05 06:42 | 35.62977 | 139.71927 | 1694 ft | 162 kts | 153° |
| 2026-05-05 06:42 | 35.62002 | 139.72623 | 1482 ft | 159 kts | 152° |
| 2026-05-05 06:43 | 35.61060 | 139.73297 | 1274 ft | 153 kts | 154° |
| 2026-05-05 06:43 | 35.60149 | 139.73946 | 1056 ft | 150 kts | 154° |
| 2026-05-05 06:43 | 35.59243 | 139.74590 | 899 ft | 147 kts | 153° |
| 2026-05-05 06:43 | 35.58359 | 139.75221 | 707 ft | 145 kts | 152° |
| 2026-05-05 06:44 | 35.57473 | 139.75852 | 492 ft | 148 kts | 153° |
| 2026-05-05 06:44 | 35.56623 | 139.76458 | 265 ft | 130 kts | 154° |
| 2026-05-05 06:44 | 35.55884 | 139.77018 | 30 ft | 116 kts | 153° |
| 2026-05-05 06:44 | 35.55317 | 139.77392 | 24 ft | 43 kts | 149° |
| 2026-05-05 06:45 | 35.55144 | 139.77515 | 24 ft | 27 kts | 152° |
| 2026-05-05 06:45 | 35.55089 | 139.77619 | 24 ft | 14 kts | 28° |
| 2026-05-05 06:45 | 35.55148 | 139.77620 | 23 ft | 0 kts | 4° |
| 2026-05-05 06:46 | 35.55152 | 139.77622 | 22 ft | 2 kts | 17° |
| 2026-05-05 06:46 | 35.55176 | 139.77649 | 23 ft | 8 kts | 47° |
| 2026-05-05 06:46 | 35.55216 | 139.77724 | 23 ft | 13 kts | 60° |
| 2026-05-05 06:47 | 35.55210 | 139.77837 | 23 ft | 16 kts | 139° |
| 2026-05-05 06:47 | 35.55110 | 139.77922 | 26 ft | 18 kts | 149° |
| 2026-05-05 06:47 | 35.55006 | 139.77997 | 24 ft | 17 kts | 150° |
| 2026-05-05 06:47 | 35.54902 | 139.78067 | 26 ft | 17 kts | 155° |
| 2026-05-05 06:48 | 35.54803 | 139.78137 | 25 ft | 16 kts | 150° |
| 2026-05-05 06:48 | 35.54707 | 139.78202 | 26 ft | 15 kts | 150° |
| 2026-05-05 06:48 | 35.54617 | 139.78269 | 24 ft | 15 kts | 148° |
| 2026-05-05 06:48 | 35.54528 | 139.78330 | 26 ft | 14 kts | 150° |
| 2026-05-05 06:49 | 35.54463 | 139.78397 | 24 ft | 8 kts | 102° |
| 2026-05-05 06:49 | 35.54466 | 139.78427 | 23 ft | 1 kts | 71° |
| 2026-05-05 06:49 | 35.54472 | 139.78438 | 27 ft | 2 kts | 58° |
| 2026-05-05 06:49 | 35.54484 | 139.78465 | 25 ft | 5 kts | 60° |
| 2026-05-05 06:50 | 35.54486 | 139.78469 | 23 ft | 0 kts | 60° |